Time;durP1;ratioP1;P1;durP2;ratioP2;P2;SDS_P1;SDS_P2;PMS_P1;PMS_P2;Temp;Humidity;BMP_temperature;BMP_pressure;BME280_temperature;BME280_humidity;BME280_pressure;Samples;Min_cycle;Max_cycle;Signal;HPM_P1;HPM_P2
2022/02/14 00:02:10;;;;;;;8.93;4.40;;;;;;;;;;1626458;88;21206;-66
2022/02/14 00:04:36;;;;;;;12.13;4.58;;;;;;;;;;1627003;88;22170;-65
2022/02/14 00:07:03;;;;;;;10.63;4.50;;;;;;;;;;1626464;88;21062;-66
2022/02/14 00:09:30;;;;;;;9.03;5.12;;;;;;;;;;1626553;88;21158;-65
2022/02/14 00:11:57;;;;;;;12.07;4.92;;;;;;;;;;1626856;88;21656;-66
2022/02/14 00:14:26;;;;;;;6.95;4.25;;;;;;;;;;1627047;88;21022;-66
2022/02/14 00:16:52;;;;;;;8.95;4.60;;;;;;;;;;1626965;88;21649;-66
2022/02/14 00:59:11;;;;;;;7.67;4.62;;;;;;;;;;1799147;79;23044;-66
2022/02/14 01:01:38;;;;;;;11.20;4.62;;;;;;;;;;1758742;81;21542;-67
2022/02/14 01:04:05;;;;;;;9.00;3.58;;;;;;;;;;1755956;81;21048;-66
2022/02/14 01:06:30;;;;;;;8.55;4.47;;;;;;;;;;1757004;81;21028;-66
2022/02/14 01:08:56;;;;;;;6.95;3.77;;;;;;;;;;1750060;81;21087;-66
2022/02/14 01:11:23;;;;;;;7.37;3.98;;;;;;;;;;1723946;83;21550;-66
2022/02/14 01:13:49;;;;;;;7.65;4.25;;;;;;;;;;1722562;83;21040;-66
2022/02/14 01:16:15;;;;;;;7.60;3.72;;;;;;;;;;1722516;83;21033;-66
2022/02/14 01:18:41;;;;;;;9.48;4.83;;;;;;;;;;1727563;83;21600;-66
2022/02/14 01:21:07;;;;;;;8.20;4.30;;;;;;;;;;1727323;83;21058;-66
2022/02/14 01:23:33;;;;;;;6.10;3.80;;;;;;;;;;1727707;83;22309;-67
2022/02/14 01:25:59;;;;;;;7.95;3.98;;;;;;;;;;1728002;82;21044;-67
2022/02/14 01:28:25;;;;;;;7.58;4.28;;;;;;;;;;1727093;83;21091;-66
2022/02/14 01:30:52;;;;;;;7.03;3.98;;;;;;;;;;1728116;83;21110;-66
2022/02/14 01:33:18;;;;;;;7.05;3.90;;;;;;;;;;1728135;83;21087;-66
2022/02/14 01:35:46;;;;;;;6.83;3.70;;;;;;;;;;1723849;83;21017;-68
2022/02/14 01:38:12;;;;;;;5.83;3.72;;;;;;;;;;1726130;83;21043;-66
2022/02/14 01:40:39;;;;;;;7.72;3.85;;;;;;;;;;1725869;83;21037;-66
2022/02/14 01:43:04;;;;;;;7.70;4.05;;;;;;;;;;1726828;83;21175;-66
2022/02/14 01:45:30;;;;;;;9.70;4.50;;;;;;;;;;1726684;83;21065;-67
2022/02/14 01:47:57;;;;;;;9.30;4.58;;;;;;;;;;1724650;83;21049;-67
2022/02/14 01:50:22;;;;;;;4.90;3.08;;;;;;;;;;1725027;83;21057;-66
2022/02/14 01:52:49;;;;;;;7.97;3.98;;;;;;;;;;1722435;83;20982;-66
2022/02/14 01:55:14;;;;;;;4.30;2.77;;;;;;;;;;1722277;83;21033;-67
2022/02/14 01:57:41;;;;;;;11.63;4.97;;;;;;;;;;1724298;83;21048;-67
2022/02/14 02:00:09;;;;;;;6.28;3.70;;;;;;;;;;1715866;84;21008;-67
2022/02/14 02:05:26;;;;;;;7.92;4.40;;;;;;;;;;1689599;82;21103;-66
2022/02/14 02:07:54;;;;;;;12.45;4.50;;;;;;;;;;1662431;85;21110;-67
2022/02/14 02:10:20;;;;;;;8.55;4.37;;;;;;;;;;1669787;86;21011;-66
2022/02/14 02:12:47;;;;;;;6.03;3.60;;;;;;;;;;1694640;85;21061;-67
2022/02/14 02:15:13;;;;;;;8.58;4.35;;;;;;;;;;1690214;85;21065;-67
2022/02/14 02:17:40;;;;;;;6.05;3.83;;;;;;;;;;1686378;85;21061;-67
2022/02/14 02:20:07;;;;;;;6.70;3.58;;;;;;;;;;1666506;85;21090;-67
2022/02/14 02:22:33;;;;;;;8.75;3.72;;;;;;;;;;1658509;86;21061;-68
2022/02/14 02:24:59;;;;;;;9.03;4.28;;;;;;;;;;1671438;85;21043;-66
2022/02/14 02:27:25;;;;;;;8.30;4.37;;;;;;;;;;1687981;85;21030;-66
2022/02/14 02:29:52;;;;;;;9.73;4.47;;;;;;;;;;1667230;86;21079;-67
2022/02/14 02:32:18;;;;;;;6.50;3.90;;;;;;;;;;1665380;85;20999;-67
2022/02/14 02:34:45;;;;;;;6.03;3.50;;;;;;;;;;1672202;86;21667;-67
2022/02/14 02:37:12;;;;;;;8.63;4.30;;;;;;;;;;1693111;85;21525;-68
2022/02/14 02:39:38;;;;;;;7.00;3.60;;;;;;;;;;1693023;85;21557;-67
2022/02/14 02:42:05;;;;;;;10.05;4.58;;;;;;;;;;1686443;85;21036;-66
2022/02/14 02:44:32;;;;;;;8.98;4.62;;;;;;;;;;1685385;85;21048;-67
2022/02/14 02:47:02;;;;;;;6.58;3.47;;;;;;;;;;1671420;86;21004;-66
2022/02/14 02:49:28;;;;;;;7.78;4.12;;;;;;;;;;1690874;85;21098;-67
2022/02/14 02:51:54;;;;;;;8.30;4.42;;;;;;;;;;1693249;85;21082;-66
2022/02/14 02:54:21;;;;;;;9.08;4.50;;;;;;;;;;1686056;85;21077;-66
2022/02/14 02:56:47;;;;;;;6.42;3.37;;;;;;;;;;1684635;85;21076;-66
2022/02/14 02:59:13;;;;;;;5.72;3.75;;;;;;;;;;1684469;85;21607;-67
2022/02/14 03:01:39;;;;;;;7.03;3.35;;;;;;;;;;1687462;85;21034;-67
2022/02/14 03:04:07;;;;;;;8.40;3.77;;;;;;;;;;1692215;84;21094;-67
2022/02/14 03:06:32;;;;;;;7.95;4.00;;;;;;;;;;1692759;85;21063;-67
2022/02/14 03:08:59;;;;;;;6.12;3.47;;;;;;;;;;1656747;87;21048;-67
2022/02/14 03:11:25;;;;;;;11.15;4.47;;;;;;;;;;1656163;87;21109;-67
2022/02/14 03:13:51;;;;;;;6.50;3.42;;;;;;;;;;1655517;87;21057;-68
2022/02/14 03:16:18;;;;;;;7.92;3.90;;;;;;;;;;1656586;87;21120;-67
2022/02/14 03:18:46;;;;;;;5.97;4.17;;;;;;;;;;1655998;87;21080;-67
2022/02/14 03:21:12;;;;;;;7.67;4.05;;;;;;;;;;1655402;87;21056;-67
2022/02/14 03:23:38;;;;;;;7.37;3.77;;;;;;;;;;1656445;86;21551;-67
2022/02/14 03:26:04;;;;;;;6.87;4.03;;;;;;;;;;1655509;87;21041;-67
2022/02/14 03:28:30;;;;;;;9.13;4.00;;;;;;;;;;1655810;86;21596;-67
2022/02/14 03:30:57;;;;;;;5.97;2.85;;;;;;;;;;1691087;84;21034;-67
2022/02/14 03:33:24;;;;;;;9.05;3.92;;;;;;;;;;1691508;84;21030;-67
2022/02/14 03:35:50;;;;;;;10.38;4.95;;;;;;;;;;1691179;85;21002;-68
2022/02/14 03:38:18;;;;;;;7.17;4.25;;;;;;;;;;1692150;85;21105;-66
2022/02/14 03:40:44;;;;;;;7.55;3.75;;;;;;;;;;1655549;87;21528;-67
2022/02/14 03:43:10;;;;;;;7.72;4.67;;;;;;;;;;1691485;85;20987;-67
2022/02/14 03:45:38;;;;;;;10.50;4.03;;;;;;;;;;1655441;86;20989;-67
2022/02/14 03:48:04;;;;;;;8.00;4.15;;;;;;;;;;1655790;87;21076;-67
2022/02/14 03:50:33;;;;;;;7.15;4.17;;;;;;;;;;1692472;85;21541;-67
2022/02/14 03:52:59;;;;;;;7.78;4.47;;;;;;;;;;1687500;85;21045;-68
2022/02/14 03:55:25;;;;;;;6.33;3.95;;;;;;;;;;1691444;85;20979;-66
2022/02/14 03:57:51;;;;;;;7.85;4.00;;;;;;;;;;1691024;85;21066;-66
2022/02/14 04:00:17;;;;;;;8.53;4.35;;;;;;;;;;1692628;85;21501;-67
2022/02/14 04:02:43;;;;;;;8.38;3.95;;;;;;;;;;1692000;84;21014;-66
2022/02/14 04:05:11;;;;;;;7.72;3.85;;;;;;;;;;1660363;86;22167;-66
2022/02/14 04:07:37;;;;;;;6.10;2.55;;;;;;;;;;1633174;88;21071;-67
2022/02/14 04:10:04;;;;;;;5.58;2.83;;;;;;;;;;1701573;84;21053;-67
2022/02/14 04:12:31;;;;;;;8.18;4.75;;;;;;;;;;1701079;84;21089;-67
2022/02/14 04:14:57;;;;;;;7.00;4.20;;;;;;;;;;1664828;86;21576;-67
2022/02/14 04:17:25;;;;;;;8.08;4.28;;;;;;;;;;1665723;86;21131;-67
2022/02/14 04:19:52;;;;;;;5.20;3.80;;;;;;;;;;1665304;86;21033;-67
2022/02/14 04:22:18;;;;;;;6.65;4.20;;;;;;;;;;1632255;88;21046;-66
2022/02/14 04:24:44;;;;;;;5.25;3.60;;;;;;;;;;1698485;84;21054;-66
2022/02/14 04:27:10;;;;;;;8.48;4.25;;;;;;;;;;1699462;83;21017;-66
2022/02/14 04:29:36;;;;;;;7.50;4.25;;;;;;;;;;1698550;84;21042;-68
2022/02/14 04:32:02;;;;;;;6.47;3.60;;;;;;;;;;1699200;84;21021;-66
2022/02/14 04:34:28;;;;;;;8.75;4.50;;;;;;;;;;1699509;84;21050;-66
2022/02/14 04:36:54;;;;;;;11.45;4.45;;;;;;;;;;1699676;84;21037;-66
2022/02/14 04:39:20;;;;;;;10.05;4.08;;;;;;;;;;1665297;86;21120;-67
2022/02/14 04:41:46;;;;;;;6.22;3.47;;;;;;;;;;1691108;85;21557;-66
2022/02/14 04:44:12;;;;;;;5.40;3.83;;;;;;;;;;1664370;86;21599;-68
2022/02/14 04:46:38;;;;;;;9.48;4.67;;;;;;;;;;1691199;85;21006;-67
2022/02/14 04:49:04;;;;;;;8.40;3.65;;;;;;;;;;1664785;86;21093;-67
2022/02/14 04:51:30;;;;;;;5.97;3.27;;;;;;;;;;1640645;86;21396;-68
2022/02/14 04:53:56;;;;;;;10.05;4.08;;;;;;;;;;1700576;84;21006;-67
2022/02/14 04:56:22;;;;;;;7.10;3.58;;;;;;;;;;1701702;84;21516;-67
2022/02/14 04:58:48;;;;;;;10.50;4.60;;;;;;;;;;1702069;84;21069;-67
2022/02/14 05:01:14;;;;;;;9.53;4.20;;;;;;;;;;1701635;84;21010;-67
2022/02/14 05:03:40;;;;;;;6.08;3.42;;;;;;;;;;1665331;86;21615;-67
2022/02/14 05:06:06;;;;;;;8.78;5.20;;;;;;;;;;1642822;86;21029;-66
2022/02/14 05:08:33;;;;;;;7.50;4.25;;;;;;;;;;1667276;86;21124;-68
2022/02/14 05:11:00;;;;;;;9.68;4.95;;;;;;;;;;1667255;86;21116;-67
2022/02/14 05:13:26;;;;;;;8.63;4.70;;;;;;;;;;1677218;85;21020;-67
2022/02/14 05:15:52;;;;;;;6.10;4.03;;;;;;;;;;1698042;84;21026;-67
2022/02/14 05:18:18;;;;;;;11.43;5.45;;;;;;;;;;1699268;84;21117;-67
2022/02/14 05:20:44;;;;;;;7.28;3.80;;;;;;;;;;1665019;86;21552;-67
2022/02/14 05:23:10;;;;;;;6.97;3.98;;;;;;;;;;1632974;88;21054;-67
2022/02/14 05:25:36;;;;;;;13.48;7.12;;;;;;;;;;1666123;85;21100;-67
2022/02/14 05:28:06;;;;;;;6.03;3.45;;;;;;;;;;1698734;84;21038;-66
2022/02/14 05:30:33;;;;;;;10.93;5.47;;;;;;;;;;1664289;86;21021;-67
2022/02/14 05:33:00;;;;;;;9.55;5.40;;;;;;;;;;1634181;86;21139;-67
2022/02/14 05:35:26;;;;;;;8.30;5.00;;;;;;;;;;1671063;84;22307;-67
2022/02/14 05:37:52;;;;;;;9.23;5.35;;;;;;;;;;1701338;83;21102;-66
2022/02/14 05:40:18;;;;;;;19.75;8.30;;;;;;;;;;1667264;84;21563;-66
2022/02/14 05:42:44;;;;;;;10.53;5.20;;;;;;;;;;1632791;88;21041;-66
2022/02/14 05:45:10;;;;;;;11.20;6.03;;;;;;;;;;1700326;83;21513;-67
2022/02/14 05:47:36;;;;;;;20.25;8.65;;;;;;;;;;1697183;84;21014;-66
2022/02/14 05:50:02;;;;;;;11.22;5.37;;;;;;;;;;1664510;86;21024;-66
2022/02/14 05:52:29;;;;;;;11.95;6.03;;;;;;;;;;1700860;83;21571;-67
2022/02/14 05:54:55;;;;;;;9.88;5.53;;;;;;;;;;1706981;83;20928;-67
2022/02/14 05:57:21;;;;;;;15.20;7.62;;;;;;;;;;1686335;84;21085;-68
2022/02/14 05:59:49;;;;;;;13.25;5.97;;;;;;;;;;1696526;84;21074;-67
2022/02/14 06:02:15;;;;;;;20.10;6.47;;;;;;;;;;1685956;84;21084;-67
2022/02/14 06:04:41;;;;;;;14.98;6.28;;;;;;;;;;1623168;86;21029;-67
2022/02/14 06:07:08;;;;;;;12.50;5.47;;;;;;;;;;1703327;83;21521;-68
2022/02/14 06:09:34;;;;;;;12.15;6.05;;;;;;;;;;1726406;83;21584;-67
2022/02/14 06:12:01;;;;;;;11.22;5.72;;;;;;;;;;1664546;86;21168;-68
2022/02/14 06:14:27;;;;;;;11.22;6.08;;;;;;;;;;1685031;85;21555;-68
2022/02/14 06:16:53;;;;;;;13.15;6.17;;;;;;;;;;1684171;85;21510;-67
2022/02/14 06:19:21;;;;;;;8.13;4.20;;;;;;;;;;1666131;86;21053;-68
2022/02/14 06:21:47;;;;;;;10.23;4.90;;;;;;;;;;1665974;84;21088;-67
2022/02/14 06:24:14;;;;;;;11.40;6.05;;;;;;;;;;1664415;86;21639;-68
2022/02/14 06:26:40;;;;;;;8.13;4.70;;;;;;;;;;1633489;86;21137;-68
2022/02/14 06:29:06;;;;;;;8.73;5.37;;;;;;;;;;1698166;84;21533;-67
2022/02/14 06:31:32;;;;;;;10.32;4.85;;;;;;;;;;1699378;84;21046;-66
2022/02/14 06:33:58;;;;;;;12.65;4.90;;;;;;;;;;1698460;83;21010;-68
2022/02/14 06:36:26;;;;;;;16.25;6.97;;;;;;;;;;1678834;84;20998;-68
2022/02/14 06:38:54;;;;;;;10.53;5.03;;;;;;;;;;1698582;84;20993;-66
2022/02/14 06:41:23;;;;;;;15.18;6.35;;;;;;;;;;1698558;83;21112;-67
2022/02/14 06:43:50;;;;;;;10.72;4.95;;;;;;;;;;1699615;84;21297;-68
2022/02/14 06:46:18;;;;;;;11.40;5.62;;;;;;;;;;1664572;86;21387;-68
2022/02/14 06:48:44;;;;;;;8.15;4.25;;;;;;;;;;1692503;85;21073;-68
2022/02/14 06:51:12;;;;;;;9.33;5.10;;;;;;;;;;1656725;86;21090;-68
2022/02/14 06:56:18;;;;;;;8.08;4.33;;;;;;;;;;1799986;79;22902;-68
2022/02/14 06:58:44;;;;;;;11.73;6.10;;;;;;;;;;1753085;81;21048;-66
2022/02/14 07:01:10;;;;;;;8.20;4.10;;;;;;;;;;1757580;81;21047;-67
2022/02/14 07:03:37;;;;;;;6.80;4.60;;;;;;;;;;1736321;81;21147;-68
2022/02/14 07:06:04;;;;;;;10.18;4.62;;;;;;;;;;1727085;83;21055;-66
2022/02/14 07:08:31;;;;;;;7.55;4.28;;;;;;;;;;1694004;83;21064;-71
2022/02/14 07:10:58;;;;;;;9.45;4.78;;;;;;;;;;1650017;85;21540;-72
2022/02/14 07:13:25;;;;;;;8.03;4.08;;;;;;;;;;1666617;86;21041;-72
2022/02/14 07:15:51;;;;;;;10.68;5.47;;;;;;;;;;1666345;86;21025;-72
2022/02/14 07:18:17;;;;;;;12.58;6.03;;;;;;;;;;1666334;86;21116;-72
2022/02/14 07:20:45;;;;;;;12.07;6.20;;;;;;;;;;1666394;86;21065;-71
2022/02/14 07:23:11;;;;;;;9.60;5.08;;;;;;;;;;1669724;86;21039;-72
2022/02/14 07:25:38;;;;;;;8.53;4.50;;;;;;;;;;1653391;86;21114;-72
2022/02/14 07:28:04;;;;;;;8.80;4.40;;;;;;;;;;1671873;86;21055;-72
2022/02/14 07:30:31;;;;;;;8.40;4.58;;;;;;;;;;1691219;85;21101;-72
2022/02/14 07:32:57;;;;;;;10.80;5.95;;;;;;;;;;1686039;85;21518;-72
2022/02/14 07:35:23;;;;;;;5.95;3.90;;;;;;;;;;1662165;86;21008;-72
2022/02/14 07:37:49;;;;;;;8.53;4.80;;;;;;;;;;1679623;85;21488;-73
2022/02/14 07:40:16;;;;;;;6.80;3.80;;;;;;;;;;1667510;86;21052;-72
2022/02/14 07:42:42;;;;;;;8.05;4.37;;;;;;;;;;1666229;86;21088;-72
2022/02/14 07:45:08;;;;;;;7.05;4.00;;;;;;;;;;1668087;86;21543;-72
2022/02/14 07:47:34;;;;;;;9.48;4.37;;;;;;;;;;1668014;86;21115;-73
2022/02/14 07:50:01;;;;;;;8.93;4.20;;;;;;;;;;1668161;86;21043;-72
2022/02/14 07:52:27;;;;;;;7.25;3.72;;;;;;;;;;1674906;85;21066;-73
2022/02/14 07:54:53;;;;;;;8.68;4.47;;;;;;;;;;1660738;86;21036;-72
2022/02/14 07:57:19;;;;;;;6.20;3.55;;;;;;;;;;1687219;85;21004;-72
2022/02/14 07:59:45;;;;;;;7.15;3.95;;;;;;;;;;1687388;85;21018;-72
2022/02/14 08:02:11;;;;;;;8.15;3.95;;;;;;;;;;1669213;86;21146;-73
2022/02/14 08:04:37;;;;;;;8.28;3.75;;;;;;;;;;1656983;86;21083;-72
2022/02/14 08:07:06;;;;;;;6.25;3.65;;;;;;;;;;1685738;85;21058;-72
2022/02/14 08:09:34;;;;;;;7.78;4.05;;;;;;;;;;1650269;86;21059;-72
2022/02/14 08:12:00;;;;;;;6.50;3.90;;;;;;;;;;1649994;87;21075;-72
2022/02/14 08:14:26;;;;;;;6.17;3.98;;;;;;;;;;1650308;87;21146;-72
2022/02/14 08:16:53;;;;;;;8.53;5.53;;;;;;;;;;1650216;87;21057;-72
2022/02/14 08:19:19;;;;;;;9.43;4.50;;;;;;;;;;1686856;85;21007;-71
2022/02/14 08:21:45;;;;;;;6.05;3.40;;;;;;;;;;1657311;86;21083;-70
2022/02/14 08:24:11;;;;;;;7.53;3.30;;;;;;;;;;1723842;83;21003;-71
2022/02/14 08:26:38;;;;;;;5.17;3.10;;;;;;;;;;1686719;85;21020;-73
2022/02/14 08:29:05;;;;;;;7.55;3.83;;;;;;;;;;1686609;85;21054;-72
2022/02/14 08:31:32;;;;;;;8.88;4.55;;;;;;;;;;1723225;83;21071;-71
2022/02/14 08:33:58;;;;;;;8.83;4.15;;;;;;;;;;1723457;83;21027;-72
2022/02/14 08:36:24;;;;;;;10.75;4.28;;;;;;;;;;1723525;83;21551;-70
2022/02/14 08:38:50;;;;;;;8.33;3.55;;;;;;;;;;1686669;85;21039;-72
2022/02/14 08:41:17;;;;;;;9.90;4.22;;;;;;;;;;1657718;86;21030;-70
2022/02/14 08:43:43;;;;;;;7.33;3.98;;;;;;;;;;1723396;83;21084;-72
2022/02/14 08:46:10;;;;;;;6.50;3.70;;;;;;;;;;1723515;83;20981;-72
2022/02/14 08:48:36;;;;;;;8.78;3.92;;;;;;;;;;1723479;83;21583;-72
2022/02/14 08:51:04;;;;;;;10.63;4.28;;;;;;;;;;1723703;83;21044;-72
2022/02/14 08:53:33;;;;;;;8.18;4.17;;;;;;;;;;1724033;83;21477;-72
2022/02/14 08:55:57;;;;;;;9.45;4.12;;;;;;;;;;1728220;83;21030;-72
2022/02/14 08:58:25;;;;;;;8.75;4.03;;;;;;;;;;1731557;82;21019;-71
2022/02/14 09:00:51;;;;;;;7.00;3.62;;;;;;;;;;1696579;84;21044;-71
2022/02/14 09:03:19;;;;;;;8.93;4.33;;;;;;;;;;1692989;83;21050;-72
2022/02/14 09:05:45;;;;;;;6.10;3.52;;;;;;;;;;1691963;85;21035;-72
2022/02/14 09:08:11;;;;;;;7.67;4.17;;;;;;;;;;1690881;85;21534;-72
2022/02/14 09:10:38;;;;;;;10.75;4.50;;;;;;;;;;1691831;85;21679;-73
2022/02/14 09:13:04;;;;;;;8.13;4.17;;;;;;;;;;1691107;85;21003;-72
2022/02/14 09:15:31;;;;;;;8.18;4.62;;;;;;;;;;1691793;85;21079;-72
2022/02/14 09:17:57;;;;;;;7.67;4.33;;;;;;;;;;1693863;84;21101;-72
2022/02/14 09:20:23;;;;;;;7.40;3.77;;;;;;;;;;1696295;84;21046;-72
2022/02/14 09:22:50;;;;;;;7.95;3.98;;;;;;;;;;1675875;85;21316;-72
2022/02/14 09:25:16;;;;;;;6.75;4.00;;;;;;;;;;1670978;84;21031;-72
2022/02/14 09:27:42;;;;;;;7.60;4.33;;;;;;;;;;1691771;84;21107;-72
2022/02/14 09:30:08;;;;;;;8.70;4.40;;;;;;;;;;1694183;84;21010;-73
2022/02/14 09:32:34;;;;;;;7.67;4.42;;;;;;;;;;1691965;83;21058;-72
2022/02/14 09:35:00;;;;;;;7.75;3.90;;;;;;;;;;1691258;85;21034;-72
2022/02/14 09:37:26;;;;;;;5.70;2.80;;;;;;;;;;1691782;85;21100;-72
2022/02/14 09:39:52;;;;;;;9.10;4.03;;;;;;;;;;1695790;84;21664;-72
2022/02/14 09:42:18;;;;;;;6.25;3.20;;;;;;;;;;1695648;83;21058;-71
2022/02/14 09:44:45;;;;;;;7.22;4.30;;;;;;;;;;1664477;86;21556;-71
2022/02/14 09:47:11;;;;;;;7.95;3.95;;;;;;;;;;1695222;84;21557;-77
2022/02/14 09:49:39;;;;;;;5.67;3.70;;;;;;;;;;1693256;83;21065;-72
2022/02/14 09:52:05;;;;;;;8.70;4.50;;;;;;;;;;1693818;84;21042;-72
2022/02/14 09:54:31;;;;;;;7.35;4.22;;;;;;;;;;1691225;84;21026;-71
2022/02/14 09:56:57;;;;;;;8.73;4.87;;;;;;;;;;1692216;84;21534;-70
2022/02/14 09:59:23;;;;;;;6.53;3.47;;;;;;;;;;1691767;84;21054;-70
2022/02/14 10:01:50;;;;;;;7.20;4.20;;;;;;;;;;1688379;84;21589;-71
2022/02/14 10:04:15;;;;;;;7.20;3.75;;;;;;;;;;1695494;84;22086;-70
2022/02/14 10:06:43;;;;;;;7.25;4.28;;;;;;;;;;1696193;84;21650;-71
2022/02/14 10:09:11;;;;;;;7.95;3.55;;;;;;;;;;1693902;83;21014;-70
2022/02/14 10:11:42;;;;;;;8.28;4.85;;;;;;;;;;1700487;83;21017;-69
2022/02/14 10:14:12;;;;;;;6.85;3.92;;;;;;;;;;1695589;84;21065;-70
2022/02/14 10:16:42;;;;;;;8.48;3.90;;;;;;;;;;1693179;83;21031;-69
2022/02/14 10:19:14;;;;;;;7.08;4.62;;;;;;;;;;1688529;84;21097;-70
2022/02/14 10:21:43;;;;;;;8.23;4.12;;;;;;;;;;1691181;84;21540;-70
2022/02/14 10:24:10;;;;;;;6.87;4.00;;;;;;;;;;1691175;85;21517;-69
2022/02/14 10:26:38;;;;;;;8.65;3.77;;;;;;;;;;1694157;84;21047;-70
2022/02/14 10:29:11;;;;;;;7.25;3.90;;;;;;;;;;1695689;83;21052;-68
2022/02/14 10:31:39;;;;;;;7.37;3.58;;;;;;;;;;1694409;84;21371;-69
2022/02/14 10:34:06;;;;;;;8.78;4.87;;;;;;;;;;1696585;83;21112;-69
2022/02/14 10:36:33;;;;;;;6.62;3.70;;;;;;;;;;1694366;84;21050;-69
2022/02/14 10:39:01;;;;;;;8.18;4.65;;;;;;;;;;1699502;83;20998;-69
2022/02/14 10:41:28;;;;;;;5.92;3.80;;;;;;;;;;1690461;84;21581;-69
2022/02/14 10:43:56;;;;;;;8.90;4.60;;;;;;;;;;1692784;84;21646;-70
2022/02/14 10:46:23;;;;;;;8.25;4.80;;;;;;;;;;1691699;84;21578;-68
2022/02/14 10:48:52;;;;;;;9.90;5.97;;;;;;;;;;1693554;84;21627;-69
2022/02/14 10:51:18;;;;;;;11.03;5.28;;;;;;;;;;1694365;83;21032;-68
2022/02/14 10:53:45;;;;;;;10.00;4.47;;;;;;;;;;1691744;84;21075;-69
2022/02/14 10:56:13;;;;;;;11.00;5.10;;;;;;;;;;1692300;83;21054;-69
2022/02/14 10:58:41;;;;;;;10.00;4.60;;;;;;;;;;1694202;84;21584;-69
2022/02/14 11:01:11;;;;;;;10.23;5.00;;;;;;;;;;1692184;84;21073;-69
2022/02/14 11:03:40;;;;;;;7.67;4.65;;;;;;;;;;1694733;83;21525;-70
2022/02/14 11:06:09;;;;;;;9.73;5.78;;;;;;;;;;1695086;84;21093;-69
2022/02/14 11:08:36;;;;;;;6.87;4.12;;;;;;;;;;1693788;84;21088;-68
2022/02/14 11:11:02;;;;;;;9.53;4.33;;;;;;;;;;1692352;84;21098;-68
2022/02/14 11:13:30;;;;;;;7.28;4.30;;;;;;;;;;1693511;84;21092;-68
2022/02/14 11:15:58;;;;;;;4.42;2.80;;;;;;;;;;1693045;83;21057;-68
2022/02/14 11:18:31;;;;;;;5.58;3.15;;;;;;;;;;1692942;84;21014;-69
2022/02/14 11:20:59;;;;;;;;;;;;;;;;;;1695075;83;21055;-68
2022/02/14 11:23:27;;;;;;;5.75;2.92;;;;;;;;;;1696047;84;20115;-68
2022/02/14 11:26:07;;;;;;;6.95;4.25;;;;;;;;;;1699671;83;21050;-69
2022/02/14 11:28:38;;;;;;;4.55;2.90;;;;;;;;;;1691435;84;21544;-68
2022/02/14 11:31:11;;;;;;;6.67;3.80;;;;;;;;;;1694691;84;21076;-69
2022/02/14 11:33:39;;;;;;;6.08;3.83;;;;;;;;;;1690924;84;21588;-69
2022/02/14 11:36:06;;;;;;;5.17;2.80;;;;;;;;;;1696136;84;21062;-69
2022/02/14 11:38:48;;;;;;;4.47;2.80;;;;;;;;;;1693892;84;21037;-69
2022/02/14 11:41:19;;;;;;;4.12;2.58;;;;;;;;;;1692274;84;21025;-69
2022/02/14 11:43:45;;;;;;;4.50;2.67;;;;;;;;;;1686891;84;21133;-68
2022/02/14 11:46:17;;;;;;;4.60;2.92;;;;;;;;;;1696315;84;21034;-69
2022/02/14 11:48:43;;;;;;;5.97;3.05;;;;;;;;;;1696531;84;21044;-69
2022/02/14 11:51:13;;;;;;;4.55;2.50;;;;;;;;;;1693477;84;21517;-68
2022/02/14 11:53:41;;;;;;;5.67;2.85;;;;;;;;;;1697787;83;21042;-69
2022/02/14 11:56:25;;;;;;;5.17;2.90;;;;;;;;;;1688419;84;21080;-69
2022/02/14 11:59:10;;;;;;;7.78;3.55;;;;;;;;;;1675265;84;21417;-69
2022/02/14 12:01:51;;;;;;;6.15;3.00;;;;;;;;;;1672877;84;21075;-69
2022/02/14 12:04:27;;;;;;;6.25;3.55;;;;;;;;;;1675666;86;21064;-69
2022/02/14 12:07:12;;;;;;;5.62;2.98;;;;;;;;;;1654794;85;21072;-68
2022/02/14 12:09:58;;;;;;;6.20;3.55;;;;;;;;;;1675846;84;20968;-69
2022/02/14 12:12:41;;;;;;;6.60;3.12;;;;;;;;;;1675747;85;21059;-69
2022/02/14 12:15:12;;;;;;;7.35;4.03;;;;;;;;;;1676459;85;21091;-68
2022/02/14 12:20:37;;;;;;;4.75;2.75;;;;;;;;;;1675588;85;21094;-69
2022/02/14 12:23:01;;;;;;;6.40;3.15;;;;;;;;;;1673698;85;21075;-69
2022/02/14 12:25:26;;;;;;;3.87;2.58;;;;;;;;;;1676424;84;21031;-69
2022/02/14 12:27:53;;;;;;;5.22;3.00;;;;;;;;;;1676525;85;21051;-70
2022/02/14 12:30:21;;;;;;;6.20;3.10;;;;;;;;;;1649183;85;21078;-68
2022/02/14 12:32:48;;;;;;;7.25;3.22;;;;;;;;;;1677108;85;21055;-69
2022/02/14 12:35:16;;;;;;;9.78;3.70;;;;;;;;;;1666524;86;21092;-70
2022/02/14 12:37:41;;;;;;;6.33;3.20;;;;;;;;;;1664268;86;21060;-69
2022/02/14 12:40:08;;;;;;;4.30;2.45;;;;;;;;;;1681865;85;21110;-68
2022/02/14 12:42:35;;;;;;;5.53;3.30;;;;;;;;;;1664570;86;21041;-69
2022/02/14 12:45:01;;;;;;;6.78;3.40;;;;;;;;;;1665340;83;21100;-69
2022/02/14 12:47:28;;;;;;;6.10;3.30;;;;;;;;;;1585877;90;21097;-69
2022/02/14 12:50:14;;;;;;;6.83;3.50;;;;;;;;;;1579050;90;21624;-68
2022/02/14 12:52:42;;;;;;;4.70;2.77;;;;;;;;;;1595858;90;21109;-69
2022/02/14 12:55:08;;;;;;;5.90;2.98;;;;;;;;;;1596673;90;21139;-69
2022/02/14 12:57:39;;;;;;;4.58;3.05;;;;;;;;;;1611744;88;21100;-69
2022/02/14 13:00:24;;;;;;;4.03;2.15;;;;;;;;;;1614042;89;21037;-68
2022/02/14 13:02:51;;;;;;;6.33;3.37;;;;;;;;;;1589539;89;21124;-68
2022/02/14 13:05:17;;;;;;;5.70;3.35;;;;;;;;;;1609852;89;21055;-68
2022/02/14 13:07:43;;;;;;;4.33;2.35;;;;;;;;;;1603754;89;21666;-68
2022/02/14 13:10:10;;;;;;;6.08;3.17;;;;;;;;;;1602578;89;21086;-68
2022/02/14 13:12:36;;;;;;;3.95;2.22;;;;;;;;;;1613846;88;22191;-69
2022/02/14 13:15:03;;;;;;;3.90;2.00;;;;;;;;;;1628357;88;21103;-68
2022/02/14 13:17:29;;;;;;;2.47;2.05;;;;;;;;;;1628272;88;21053;-69
2022/02/14 13:19:56;;;;;;;3.60;2.25;;;;;;;;;;1628371;88;21101;-69
2022/02/14 13:22:24;;;;;;;2.35;1.87;;;;;;;;;;1628086;88;21073;-68
2022/02/14 13:24:51;;;;;;;3.70;1.82;;;;;;;;;;1628489;88;21010;-68
2022/02/14 13:27:19;;;;;;;4.45;2.30;;;;;;;;;;1628207;88;21005;-69
2022/02/14 13:29:46;;;;;;;3.67;2.20;;;;;;;;;;1628221;88;21104;-69
2022/02/14 13:32:14;;;;;;;4.60;2.02;;;;;;;;;;1624340;88;21049;-68
2022/02/14 13:34:59;;;;;;;4.78;2.58;;;;;;;;;;1624039;88;21100;-68
2022/02/14 13:37:25;;;;;;;4.83;2.60;;;;;;;;;;1624449;88;21041;-69
2022/02/14 13:39:52;;;;;;;4.60;2.30;;;;;;;;;;1624480;88;21065;-68
2022/02/14 13:42:19;;;;;;;4.28;2.50;;;;;;;;;;1624376;88;21584;-69
2022/02/14 13:44:56;;;;;;;3.65;2.10;;;;;;;;;;1624194;88;21323;-68
2022/02/14 13:47:22;;;;;;;3.12;2.20;;;;;;;;;;1628263;88;21134;-69
2022/02/14 13:49:48;;;;;;;3.62;2.12;;;;;;;;;;1628515;88;21620;-68
2022/02/14 13:52:23;;;;;;;4.35;2.08;;;;;;;;;;1628190;88;21078;-68
2022/02/14 13:55:02;;;;;;;5.45;2.92;;;;;;;;;;1627821;88;21113;-68
2022/02/14 13:57:28;;;;;;;3.33;1.92;;;;;;;;;;1622786;88;21055;-70
2022/02/14 13:59:54;;;;;;;6.42;3.60;;;;;;;;;;1619956;88;21048;-68
2022/02/14 14:02:20;;;;;;;3.95;2.75;;;;;;;;;;1620385;88;21123;-69
2022/02/14 14:04:48;;;;;;;5.65;3.00;;;;;;;;;;1620396;88;21020;-68
2022/02/14 14:07:16;;;;;;;5.37;2.70;;;;;;;;;;1601543;88;21084;-69
2022/02/14 14:09:54;;;;;;;6.97;2.77;;;;;;;;;;1620136;88;21111;-69
2022/02/14 14:12:22;;;;;;;6.80;3.75;;;;;;;;;;1620107;88;21717;-69
2022/02/14 14:14:49;;;;;;;4.12;2.55;;;;;;;;;;1620372;88;21067;-69
2022/02/14 14:17:16;;;;;;;5.35;2.42;;;;;;;;;;1620256;88;21035;-69
2022/02/14 14:19:54;;;;;;;4.70;2.90;;;;;;;;;;1620010;87;21571;-68
2022/02/14 14:22:19;;;;;;;5.10;3.00;;;;;;;;;;1620114;88;20980;-69
2022/02/14 14:24:46;;;;;;;4.58;2.85;;;;;;;;;;1620325;88;21052;-68
2022/02/14 14:27:12;;;;;;;5.25;2.45;;;;;;;;;;1620247;88;21064;-69
2022/02/14 14:29:39;;;;;;;5.67;3.58;;;;;;;;;;1616723;88;21021;-69
2022/02/14 14:32:06;;;;;;;6.00;3.20;;;;;;;;;;1617633;88;21055;-73
2022/02/14 14:34:32;;;;;;;6.45;3.55;;;;;;;;;;1620347;87;21089;-69
2022/02/14 14:36:58;;;;;;;7.60;3.72;;;;;;;;;;1620325;88;21594;-71
2022/02/14 14:39:24;;;;;;;6.62;3.40;;;;;;;;;;1620204;87;21099;-69
2022/02/14 14:41:50;;;;;;;7.47;3.83;;;;;;;;;;1620278;88;21643;-69
2022/02/14 14:44:16;;;;;;;4.70;2.95;;;;;;;;;;1615224;88;21047;-69
2022/02/14 14:46:42;;;;;;;7.08;3.42;;;;;;;;;;1610557;88;21000;-69
2022/02/14 14:49:07;;;;;;;5.47;2.83;;;;;;;;;;1603299;87;21595;-69
2022/02/14 14:51:33;;;;;;;7.90;2.90;;;;;;;;;;1619041;87;21162;-69
2022/02/14 14:54:00;;;;;;;4.00;2.50;;;;;;;;;;1619186;88;21093;-69
2022/02/14 14:56:27;;;;;;;4.85;2.50;;;;;;;;;;1612988;88;21086;-69
2022/02/14 14:58:53;;;;;;;8.13;3.92;;;;;;;;;;1619844;88;21492;-70
2022/02/14 15:01:19;;;;;;;9.98;3.27;;;;;;;;;;1617214;87;21087;-70
2022/02/14 15:03:45;;;;;;;9.05;3.25;;;;;;;;;;1623105;88;21039;-69
2022/02/14 15:06:16;;;;;;;3.47;2.40;;;;;;;;;;1622831;88;21005;-69
2022/02/14 15:08:39;;;;;;;4.60;2.65;;;;;;;;;;1621623;88;21020;-69
2022/02/14 15:11:06;;;;;;;5.55;2.55;;;;;;;;;;1622952;88;21090;-69
2022/02/14 15:13:32;;;;;;;4.67;2.87;;;;;;;;;;1621725;88;21591;-68
2022/02/14 15:15:58;;;;;;;8.63;5.30;;;;;;;;;;1622619;88;22156;-68
2022/02/14 15:18:25;;;;;;;7.17;3.75;;;;;;;;;;1621773;88;21080;-69
2022/02/14 15:20:51;;;;;;;7.70;4.37;;;;;;;;;;1616539;88;21092;-70
2022/02/14 15:23:17;;;;;;;5.62;2.77;;;;;;;;;;1610193;88;21043;-70
2022/02/14 15:25:45;;;;;;;6.65;3.52;;;;;;;;;;1617470;88;21721;-68
2022/02/14 15:28:11;;;;;;;7.22;3.45;;;;;;;;;;1623075;88;21579;-68
2022/02/14 15:30:37;;;;;;;4.55;2.92;;;;;;;;;;1622927;88;21079;-68